createdAt,value
2023-02-05T00:01:00.341Z,7.00
2023-02-05T00:03:27.661Z,6.97
2023-02-05T00:05:55.034Z,5.83
2023-02-05T00:08:22.290Z,5.77
2023-02-05T00:10:53.468Z,4.53
2023-02-05T00:13:20.985Z,4.77
2023-02-05T00:15:48.319Z,4.53
2023-02-05T00:18:15.585Z,4.43
2023-02-05T00:20:42.771Z,4.00
2023-02-05T00:23:10.029Z,4.33
2023-02-05T00:25:37.227Z,4.20
2023-02-05T00:28:05.981Z,3.30
2023-02-05T00:30:33.364Z,3.33
2023-02-05T00:33:00.677Z,3.47
2023-02-05T00:35:28.822Z,3.13
2023-02-05T00:37:56.090Z,2.57
2023-02-05T00:43:13.872Z,3.03
2023-02-05T00:45:41.164Z,2.70
2023-02-05T00:48:08.536Z,3.30
2023-02-05T00:50:35.897Z,2.27
2023-02-05T00:53:03.315Z,2.40
2023-02-05T00:55:49.508Z,2.87
2023-02-05T01:02:13.463Z,2.33
2023-02-05T01:04:40.752Z,2.77
2023-02-05T01:07:07.971Z,3.30
2023-02-05T01:09:35.512Z,2.30
2023-02-05T01:12:02.841Z,2.20
2023-02-05T01:14:30.080Z,2.60
2023-02-05T01:16:57.702Z,2.70
2023-02-05T01:19:26.701Z,2.10
2023-02-05T01:21:53.931Z,2.40
2023-02-05T01:24:21.221Z,2.53
2023-02-05T01:27:10.363Z,2.87
2023-02-05T01:29:59.476Z,2.30
2023-02-05T01:32:28.351Z,2.30
2023-02-05T01:34:57.212Z,2.10
2023-02-05T01:37:24.706Z,2.47
2023-02-05T01:39:52.002Z,2.67
2023-02-05T01:42:20.534Z,2.97
2023-02-05T01:45:08.325Z,2.23
2023-02-05T01:47:35.909Z,2.60
2023-02-05T01:50:04.642Z,3.23
2023-02-05T01:52:31.976Z,2.40
2023-02-05T02:01:48.835Z,3.10
2023-02-05T02:04:19.559Z,2.80
2023-02-05T02:06:48.162Z,2.87
2023-02-05T02:09:15.376Z,2.57
2023-02-05T02:11:43.973Z,2.77
2023-02-05T02:14:31.335Z,2.87
2023-02-05T02:16:59.655Z,2.40
2023-02-05T02:19:31.424Z,3.10
2023-02-05T02:22:12.456Z,3.13
2023-02-05T02:28:30.356Z,3.67
2023-02-05T02:31:02.256Z,3.07
2023-02-05T02:33:33.263Z,3.37
2023-02-05T02:36:02.227Z,3.27
2023-02-05T02:38:33.611Z,3.00
2023-02-05T02:41:06.230Z,3.37
2023-02-05T02:46:28.014Z,4.17
2023-02-05T02:48:58.201Z,3.57
2023-02-05T02:51:26.099Z,4.00
2023-02-05T02:53:56.508Z,3.17
2023-02-05T02:56:24.881Z,3.80
2023-02-05T03:05:57.073Z,3.30
2023-02-05T03:08:27.780Z,4.63
2023-02-05T03:10:57.461Z,3.70
2023-02-05T03:13:43.248Z,4.50
2023-02-05T03:16:11.085Z,5.30
2023-02-05T03:18:38.561Z,4.17
2023-02-05T03:21:10.253Z,5.07
2023-02-05T03:23:37.655Z,4.90
2023-02-05T03:26:05.011Z,4.33
2023-02-05T03:31:36.653Z,5.07
2023-02-05T03:34:10.856Z,5.17
2023-02-05T03:36:43.839Z,4.50
2023-02-05T03:39:17.595Z,5.33
2023-02-05T03:41:49.833Z,5.10
2023-02-05T03:44:24.881Z,7.13
2023-02-05T03:46:59.152Z,5.67
2023-02-05T03:49:31.455Z,5.27
2023-02-05T03:52:03.512Z,5.07
2023-02-05T03:54:35.084Z,4.80
2023-02-05T03:57:06.431Z,5.30
2023-02-05T03:59:37.729Z,5.13
2023-02-05T04:02:06.241Z,5.23
2023-02-05T04:04:39.060Z,4.70
2023-02-05T04:07:09.383Z,4.97
2023-02-05T04:09:38.428Z,7.50
2023-02-05T04:12:05.979Z,5.00
2023-02-05T04:14:34.763Z,4.53
2023-02-05T04:17:02.052Z,5.17
2023-02-05T04:19:29.389Z,4.50
2023-02-05T04:21:59.802Z,4.00
2023-02-05T04:24:29.472Z,3.20
2023-02-05T04:26:56.774Z,3.30
2023-02-05T04:29:24.187Z,2.77
2023-02-05T04:31:53.171Z,2.90
2023-02-05T04:34:20.410Z,2.67
2023-02-05T04:36:47.855Z,2.30
2023-02-05T04:39:15.356Z,2.77
2023-02-05T04:41:47.070Z,2.43
2023-02-05T04:44:14.264Z,3.60
2023-02-05T04:46:41.615Z,2.70
2023-02-05T04:49:08.921Z,3.43
2023-02-05T04:51:36.227Z,4.20
2023-02-05T04:54:03.494Z,3.30
2023-02-05T04:56:30.773Z,3.77
2023-02-05T04:58:59.408Z,3.83
2023-02-05T05:01:26.693Z,3.70
2023-02-05T05:03:53.984Z,3.60
2023-02-05T05:06:21.342Z,3.50
2023-02-05T05:08:48.663Z,4.43
2023-02-05T05:11:16.843Z,4.30
2023-02-05T05:13:44.151Z,3.43
2023-02-05T05:16:13.370Z,3.50
2023-02-05T05:18:41.088Z,3.60
2023-02-05T05:21:08.726Z,3.13
2023-02-05T05:23:36.806Z,4.07
2023-02-05T05:26:05.639Z,3.87
2023-02-05T05:28:32.952Z,4.47
2023-02-05T05:31:00.183Z,3.53
2023-02-05T05:33:28.780Z,2.97
2023-02-05T05:35:56.018Z,4.17
2023-02-05T05:38:23.310Z,4.50
2023-02-05T05:40:50.834Z,3.20
2023-02-05T05:43:18.781Z,3.50
2023-02-05T05:45:46.038Z,3.03
2023-02-05T05:48:13.303Z,3.23
2023-02-05T05:50:41.949Z,4.17
2023-02-05T05:53:09.164Z,3.90
2023-02-05T05:55:36.600Z,3.43
2023-02-05T05:58:05.015Z,3.50
2023-02-05T06:00:33.188Z,3.70
2023-02-05T06:03:00.452Z,4.23
2023-02-05T06:05:27.655Z,4.27
2023-02-05T06:07:56.331Z,3.10
2023-02-05T06:10:23.590Z,4.43
2023-02-05T06:12:50.816Z,3.63
2023-02-05T06:15:18.401Z,3.53
2023-02-05T06:17:45.665Z,4.37
2023-02-05T06:20:13.337Z,4.63
2023-02-05T06:22:40.827Z,3.83
2023-02-05T06:25:09.633Z,3.97
2023-02-05T06:27:36.894Z,3.30
2023-02-05T06:30:04.400Z,4.90
2023-02-05T06:32:31.594Z,4.53
2023-02-05T06:34:58.883Z,3.97
2023-02-05T06:37:34.155Z,4.27
2023-02-05T06:40:14.585Z,4.70
2023-02-05T06:42:41.948Z,4.47
2023-02-05T06:45:09.753Z,4.50
2023-02-05T06:47:37.062Z,4.50
2023-02-05T06:50:04.662Z,4.63
2023-02-05T06:52:31.904Z,4.50
2023-02-05T06:54:59.226Z,4.23
2023-02-05T06:57:27.906Z,3.77
2023-02-05T06:59:55.233Z,6.07
2023-02-05T07:02:22.485Z,4.37
2023-02-05T07:04:49.866Z,3.97
2023-02-05T07:07:17.146Z,5.80
2023-02-05T07:09:44.657Z,4.83
2023-02-05T07:12:12.002Z,5.03
2023-02-05T07:14:41.125Z,5.23
2023-02-05T07:17:08.722Z,4.43
2023-02-05T07:19:36.101Z,5.43
2023-02-05T07:22:03.391Z,4.57
2023-02-05T07:24:30.684Z,3.67
2023-02-05T07:26:57.952Z,5.40
2023-02-05T07:29:25.258Z,4.43
2023-02-05T07:31:53.926Z,4.17
2023-02-05T07:34:21.397Z,4.37
2023-02-05T07:36:50.547Z,4.23
2023-02-05T07:39:17.842Z,3.57
2023-02-05T07:41:45.088Z,4.17
2023-02-05T07:44:21.240Z,4.77
2023-02-05T07:46:48.570Z,4.77
2023-02-05T07:49:17.184Z,5.10
2023-02-05T07:51:44.457Z,3.90
2023-02-05T07:54:13.394Z,4.40
2023-02-05T07:56:40.728Z,5.57
2023-02-05T07:59:11.375Z,4.67
2023-02-05T08:01:38.859Z,5.77
2023-02-05T08:04:06.179Z,4.63
2023-02-05T08:06:35.638Z,5.40
2023-02-05T08:09:03.114Z,5.67
2023-02-05T08:11:32.548Z,6.30
2023-02-05T08:14:01.300Z,5.03
2023-02-05T08:16:28.608Z,5.03
2023-02-05T08:18:55.912Z,5.87
2023-02-05T08:21:23.141Z,6.63
2023-02-05T08:23:52.130Z,5.43
2023-02-05T08:26:19.626Z,5.73
2023-02-05T08:28:46.877Z,5.37
2023-02-05T08:31:15.588Z,7.07
2023-02-05T08:33:42.926Z,5.73
2023-02-05T08:36:12.294Z,7.20
2023-02-05T08:38:39.543Z,6.43
2023-02-05T08:41:08.712Z,6.07
2023-02-05T08:43:35.967Z,5.50
2023-02-05T08:46:04.379Z,7.90
2023-02-05T08:48:31.618Z,5.77
2023-02-05T08:50:58.924Z,5.23
2023-02-05T08:53:26.230Z,6.30
2023-02-05T08:55:55.649Z,5.97
2023-02-05T08:58:24.362Z,4.93
2023-02-05T09:00:52.165Z,6.73
2023-02-05T09:03:19.824Z,5.10
2023-02-05T09:05:47.019Z,5.43
2023-02-05T09:08:17.099Z,6.90
2023-02-05T09:10:44.774Z,7.43
2023-02-05T09:13:12.019Z,7.30
2023-02-05T09:15:43.107Z,6.33
2023-02-05T09:18:10.401Z,6.90
2023-02-05T09:20:40.887Z,5.30
2023-02-05T09:27:11.683Z,7.20
2023-02-05T09:29:38.916Z,7.83
2023-02-05T09:32:07.649Z,7.47
2023-02-05T09:34:34.877Z,5.73
2023-02-05T09:37:02.142Z,4.93
2023-02-05T09:40:17.193Z,6.37
2023-02-05T09:42:25.132Z,6.57
2023-02-05T09:45:02.530Z,6.67
2023-02-05T09:47:33.724Z,7.23
2023-02-05T09:50:03.473Z,6.47
2023-02-05T09:52:33.080Z,5.63
2023-02-05T09:55:02.048Z,5.77
2023-02-05T09:57:32.786Z,7.50
2023-02-05T10:00:00.033Z,5.67
2023-02-05T10:02:29.204Z,6.30
2023-02-05T10:04:57.878Z,6.33
2023-02-05T10:07:36.236Z,7.50
2023-02-05T10:10:10.505Z,5.30
2023-02-05T10:12:42.842Z,8.63
2023-02-05T10:15:17.660Z,6.47
2023-02-05T10:17:52.426Z,5.53
2023-02-05T10:20:26.395Z,7.20
2023-02-05T10:22:58.624Z,6.23
2023-02-05T10:25:34.273Z,6.20
2023-02-05T10:28:06.595Z,6.67
2023-02-05T10:30:37.018Z,6.40
2023-02-05T10:33:08.956Z,5.90
2023-02-05T10:35:43.147Z,7.50
2023-02-05T10:38:14.970Z,7.30
2023-02-05T10:40:42.377Z,7.10
2023-02-05T10:43:15.030Z,6.40
2023-02-05T10:45:42.242Z,5.37
2023-02-05T10:48:20.392Z,5.97
2023-02-05T10:50:51.702Z,6.70
2023-02-05T10:53:19.981Z,9.10
2023-02-05T10:55:47.332Z,6.33
2023-02-05T10:58:38.448Z,7.20
2023-02-05T11:01:06.348Z,6.17
2023-02-05T11:03:34.063Z,6.90
2023-02-05T11:06:02.819Z,5.70
2023-02-05T11:08:45.771Z,5.90
2023-02-05T11:14:56.206Z,5.67
2023-02-05T11:17:25.671Z,4.70
2023-02-05T11:19:55.153Z,10.20
2023-02-05T11:22:27.974Z,6.53
2023-02-05T11:25:05.903Z,6.60
2023-02-05T11:27:52.111Z,5.90
2023-02-05T11:30:47.671Z,6.83
2023-02-05T11:33:25.574Z,6.30
2023-02-05T11:35:55.313Z,5.97
2023-02-05T11:45:16.680Z,7.37
2023-02-05T11:47:43.907Z,6.37
2023-02-05T11:50:19.165Z,5.47
2023-02-05T11:52:46.559Z,6.27
2023-02-05T11:55:24.323Z,5.10
2023-02-05T11:57:58.351Z,6.23
2023-02-05T12:00:27.917Z,5.10
2023-02-05T12:03:03.682Z,6.03
2023-02-05T12:05:33.569Z,7.00
2023-02-05T12:11:54.309Z,5.07
2023-02-05T12:14:25.163Z,5.33
2023-02-05T12:16:58.601Z,6.93
2023-02-05T12:19:29.532Z,6.33
2023-02-05T12:22:00.232Z,5.63
2023-02-05T12:24:39.135Z,5.80
2023-02-05T12:27:19.267Z,5.60
2023-02-05T12:29:54.058Z,5.40
2023-02-05T12:32:28.184Z,5.97
2023-02-05T12:35:03.425Z,8.13
2023-02-05T12:38:02.018Z,5.50
2023-02-05T12:40:49.823Z,6.10
2023-02-05T12:43:26.491Z,4.67
2023-02-05T12:45:58.863Z,5.30
2023-02-05T12:48:34.695Z,5.20
2023-02-05T12:51:10.056Z,3.73
2023-02-05T12:53:48.065Z,5.73
2023-02-05T12:56:34.138Z,4.40
2023-02-05T12:59:04.223Z,6.60
2023-02-05T13:01:36.775Z,6.40
2023-02-05T13:04:06.942Z,6.50
2023-02-05T13:06:35.880Z,5.73
2023-02-05T13:09:06.395Z,4.80
2023-02-05T13:11:36.270Z,5.13
2023-02-05T13:14:07.043Z,4.73
2023-02-05T13:16:37.440Z,5.43
2023-02-05T13:19:15.706Z,5.43
2023-02-05T13:21:43.325Z,4.57
2023-02-05T13:24:19.764Z,4.83
2023-02-05T13:26:48.237Z,5.80
2023-02-05T13:29:16.307Z,6.67
2023-02-05T13:31:44.591Z,5.80
2023-02-05T13:34:21.205Z,6.77
2023-02-05T13:57:30.836Z,7.83
2023-02-05T14:00:12.143Z,6.80
2023-02-05T14:02:41.364Z,6.40
2023-02-05T14:05:09.070Z,5.07
2023-02-05T14:11:11.727Z,5.93
2023-02-05T14:13:40.336Z,6.80
2023-02-05T14:26:54.746Z,6.80
2023-02-05T14:29:43.008Z,6.00
2023-02-05T14:35:45.561Z,7.13
2023-02-05T14:38:17.006Z,6.33
2023-02-05T14:43:29.488Z,4.47
2023-02-05T14:46:00.794Z,6.50
2023-02-05T14:48:30.264Z,5.47
2023-02-05T14:51:04.876Z,5.83
2023-02-05T14:53:33.338Z,6.20
2023-02-05T15:01:44.069Z,6.47
2023-02-05T15:04:23.971Z,5.90
2023-02-05T15:06:52.909Z,7.07
2023-02-05T15:09:21.612Z,6.30
2023-02-05T15:11:55.468Z,5.83
2023-02-05T15:17:52.153Z,5.07
2023-02-05T15:20:20.783Z,5.53
2023-02-05T15:22:51.565Z,6.50
2023-02-05T15:25:41.080Z,5.93
2023-02-05T15:28:09.588Z,7.33
2023-02-05T15:30:46.557Z,4.77
2023-02-05T15:33:18.474Z,5.77
2023-02-05T15:42:33.840Z,6.10
2023-02-05T15:45:15.910Z,5.63
2023-02-05T15:47:43.225Z,5.90
2023-02-05T15:50:13.993Z,5.43
2023-02-05T15:52:42.504Z,7.30
2023-02-05T15:57:46.220Z,8.53
2023-02-05T16:00:19.400Z,6.27
2023-02-05T16:02:53.964Z,5.23
2023-02-05T16:05:22.713Z,6.33
2023-02-05T16:07:50.383Z,6.67
2023-02-05T16:17:06.282Z,6.00
2023-02-05T16:19:35.741Z,6.10
2023-02-05T16:22:11.251Z,6.10
2023-02-05T16:24:39.560Z,7.00
2023-02-05T16:27:10.170Z,6.47
2023-02-05T16:29:47.779Z,7.43
2023-02-05T16:32:21.049Z,6.43
2023-02-05T16:34:48.327Z,5.70
2023-02-05T16:37:18.740Z,6.70
2023-02-05T16:39:47.349Z,6.50
2023-02-05T16:42:28.172Z,6.67
2023-02-05T16:50:35.987Z,7.07
2023-02-05T16:53:13.246Z,7.73
2023-02-05T16:55:41.470Z,6.43
2023-02-05T16:58:09.005Z,6.07
2023-02-05T17:07:03.113Z,6.00
2023-02-05T17:09:33.167Z,6.83
2023-02-05T17:12:19.121Z,7.67
2023-02-05T17:14:53.381Z,6.40
2023-02-05T17:17:20.979Z,5.90
2023-02-05T17:20:02.452Z,6.93
2023-02-05T17:22:29.773Z,6.40
2023-02-05T17:24:58.339Z,6.80
2023-02-05T17:27:28.320Z,5.90
2023-02-05T17:29:55.568Z,6.17
2023-02-05T17:32:23.033Z,5.77
2023-02-05T17:34:50.444Z,6.97
2023-02-05T17:37:17.721Z,6.90
2023-02-05T17:39:45.104Z,6.07
2023-02-05T17:42:19.270Z,7.90
2023-02-05T17:44:46.559Z,7.03
2023-02-05T17:47:13.781Z,7.77
2023-02-05T17:49:56.544Z,7.10
2023-02-05T17:52:23.784Z,6.93
2023-02-05T17:54:51.058Z,6.13
2023-02-05T17:57:21.362Z,6.33
2023-02-05T18:00:07.357Z,5.83
2023-02-05T18:06:15.893Z,7.33
2023-02-05T18:08:43.484Z,7.67
2023-02-05T18:11:10.840Z,6.90
2023-02-05T18:13:39.445Z,7.37
2023-02-05T18:16:06.960Z,7.20
2023-02-05T18:21:33.772Z,5.20
2023-02-05T18:24:01.074Z,6.17
2023-02-05T18:26:28.433Z,5.20
2023-02-05T18:28:57.183Z,6.57
2023-02-05T18:31:24.738Z,5.57
2023-02-05T18:41:15.491Z,6.77
2023-02-05T18:43:43.131Z,6.47
2023-02-05T18:46:12.528Z,6.67
2023-02-05T18:48:40.231Z,6.77
2023-02-05T18:51:07.940Z,4.57
2023-02-05T18:53:35.448Z,6.73
2023-02-05T18:56:03.483Z,8.63
2023-02-05T18:58:30.776Z,7.73
2023-02-05T19:00:58.077Z,5.93
2023-02-05T19:03:28.122Z,7.33
2023-02-05T19:05:55.449Z,8.17
2023-02-05T19:08:22.906Z,8.87
2023-02-05T19:10:50.089Z,8.00
2023-02-05T19:13:17.755Z,6.07
2023-02-05T19:15:45.088Z,9.47
2023-02-05T19:18:12.394Z,7.97
2023-02-05T19:20:41.248Z,6.90
2023-02-05T19:23:08.501Z,9.10
2023-02-05T19:25:36.822Z,7.70
2023-02-05T19:28:04.499Z,7.33
2023-02-05T19:30:31.967Z,10.47
2023-02-05T19:32:59.529Z,9.83
2023-02-05T19:35:26.715Z,7.17
2023-02-05T19:37:55.424Z,15.10
2023-02-05T19:40:22.729Z,10.90
2023-02-05T19:42:50.000Z,8.83
2023-02-05T19:45:17.393Z,9.00
2023-02-05T19:47:44.673Z,8.27
2023-02-05T19:50:12.105Z,7.03
2023-02-05T19:52:39.381Z,7.07
2023-02-05T19:55:08.431Z,6.77
2023-02-05T19:57:35.883Z,6.03
2023-02-05T20:00:03.118Z,7.00
2023-02-05T20:02:39.239Z,6.63
2023-02-05T20:05:07.138Z,7.67
2023-02-05T20:07:34.359Z,5.83
2023-02-05T20:10:01.977Z,7.50
2023-02-05T20:12:30.687Z,8.63
2023-02-05T20:14:58.256Z,7.43
2023-02-05T20:17:25.685Z,6.57
2023-02-05T20:19:59.591Z,7.93
2023-02-05T20:22:29.961Z,6.97
2023-02-05T20:24:57.210Z,7.13
2023-02-05T20:27:24.438Z,26.63
2023-02-05T20:29:53.106Z,16.57
2023-02-05T20:32:20.373Z,6.20
2023-02-05T20:34:47.692Z,6.47
2023-02-05T20:37:14.958Z,7.17
2023-02-05T20:42:18.201Z,8.27
2023-02-05T20:44:45.451Z,6.57
2023-02-05T20:47:14.755Z,8.37
2023-02-05T20:49:42.801Z,10.00
2023-02-05T20:52:10.571Z,9.20
2023-02-05T21:01:05.638Z,14.37
2023-02-05T21:03:34.938Z,14.50
2023-02-05T21:06:02.450Z,7.93
2023-02-05T21:08:29.674Z,7.33
2023-02-05T21:10:56.914Z,7.40
2023-02-05T21:16:14.967Z,6.73
2023-02-05T21:18:44.176Z,8.23
2023-02-05T21:21:12.544Z,7.57
2023-02-05T21:23:39.804Z,8.07
2023-02-05T21:26:07.377Z,8.50
2023-02-05T21:35:46.642Z,7.77
2023-02-05T21:38:13.999Z,6.07
2023-02-05T21:40:41.272Z,4.80
2023-02-05T21:43:08.557Z,8.40
2023-02-05T21:45:37.011Z,7.83
2023-02-05T21:48:04.466Z,7.17
2023-02-05T21:50:31.764Z,6.23
2023-02-05T21:53:00.638Z,6.73
2023-02-05T21:55:28.035Z,6.50
2023-02-05T21:57:55.786Z,7.57
2023-02-05T22:00:23.127Z,8.57
2023-02-05T22:02:50.456Z,9.43
2023-02-05T22:05:18.139Z,11.73
2023-02-05T22:07:45.387Z,9.70
2023-02-05T22:10:14.057Z,11.23
2023-02-05T22:12:41.832Z,9.83
2023-02-05T22:15:10.035Z,8.63
2023-02-05T22:17:37.425Z,6.53
2023-02-05T22:20:04.921Z,8.37
2023-02-05T22:22:32.238Z,7.83
2023-02-05T22:24:59.445Z,8.10
2023-02-05T22:27:28.067Z,7.00
2023-02-05T22:29:55.296Z,6.23
2023-02-05T22:32:22.530Z,6.47
2023-02-05T22:34:49.748Z,6.07
2023-02-05T22:37:16.972Z,8.17
2023-02-05T22:39:44.277Z,6.73
2023-02-05T22:42:11.605Z,6.73
2023-02-05T22:44:40.304Z,8.80
2023-02-05T22:47:07.491Z,6.87
2023-02-05T22:49:34.858Z,6.73
2023-02-05T22:52:02.084Z,6.43
2023-02-05T22:54:29.413Z,6.33
2023-02-05T22:56:56.687Z,7.23
2023-02-05T22:59:24.240Z,7.07
2023-02-05T23:01:53.216Z,4.40
2023-02-05T23:04:35.857Z,6.50
2023-02-05T23:07:03.486Z,6.43
2023-02-05T23:09:31.205Z,6.80
2023-02-05T23:11:59.562Z,7.07
2023-02-05T23:18:21.805Z,6.80
2023-02-05T23:20:50.701Z,7.57
2023-02-05T23:23:17.897Z,5.93
2023-02-05T23:25:45.146Z,6.63
2023-02-05T23:28:12.425Z,5.60
2023-02-05T23:30:39.730Z,6.53
2023-02-05T23:33:22.475Z,7.73
2023-02-05T23:35:51.481Z,6.53
2023-02-05T23:38:19.078Z,6.90
2023-02-05T23:40:46.643Z,6.90
2023-02-05T23:49:39.009Z,6.53
2023-02-05T23:52:07.944Z,5.97
2023-02-05T23:54:35.179Z,7.83
2023-02-05T23:57:02.491Z,7.40
2023-02-05T23:59:29.859Z,6.13
